sensor_id;sensor_type;location;lat;lon;timestamp;pressure;altitude;pressure_sealevel;temperature;humidity
14383;BME280;7275;50.328;8.720;2023-02-19T00:01:36;100041.16;;;15.59;51.85
14383;BME280;7275;50.328;8.720;2023-02-19T00:04:06;100029.63;;;15.59;51.71
14383;BME280;7275;50.328;8.720;2023-02-19T00:06:34;100024.38;;;15.57;51.76
14383;BME280;7275;50.328;8.720;2023-02-19T00:09:03;100015.69;;;15.54;51.74
14383;BME280;7275;50.328;8.720;2023-02-19T00:11:33;100018.41;;;15.52;51.76
14383;BME280;7275;50.328;8.720;2023-02-19T00:14:02;100016.78;;;15.50;51.96
14383;BME280;7275;50.328;8.720;2023-02-19T00:16:32;100005.34;;;15.48;52.05
14383;BME280;7275;50.328;8.720;2023-02-19T00:19:02;100008.00;;;15.48;51.89
14383;BME280;7275;50.328;8.720;2023-02-19T00:21:30;100016.16;;;15.45;51.94
14383;BME280;7275;50.328;8.720;2023-02-19T00:23:59;100018.03;;;15.43;51.81
14383;BME280;7275;50.328;8.720;2023-02-19T00:26:27;100015.44;;;15.41;51.90
14383;BME280;7275;50.328;8.720;2023-02-19T00:28:57;100004.91;;;15.38;51.89
14383;BME280;7275;50.328;8.720;2023-02-19T00:31:26;100009.38;;;15.38;51.93
14383;BME280;7275;50.328;8.720;2023-02-19T00:33:58;100016.53;;;15.37;52.29
14383;BME280;7275;50.328;8.720;2023-02-19T00:36:27;100021.00;;;15.37;51.90
14383;BME280;7275;50.328;8.720;2023-02-19T00:38:56;100014.69;;;15.38;51.92
14383;BME280;7275;50.328;8.720;2023-02-19T00:41:24;100008.44;;;15.39;51.96
14383;BME280;7275;50.328;8.720;2023-02-19T00:43:53;100000.47;;;15.39;51.91
14383;BME280;7275;50.328;8.720;2023-02-19T00:46:24;99999.50;;;15.40;51.97
14383;BME280;7275;50.328;8.720;2023-02-19T00:48:53;99999.50;;;15.40;52.05
14383;BME280;7275;50.328;8.720;2023-02-19T00:51:23;99995.13;;;15.39;51.94
14383;BME280;7275;50.328;8.720;2023-02-19T00:53:51;99995.13;;;15.39;52.10
14383;BME280;7275;50.328;8.720;2023-02-19T00:56:19;99996.00;;;15.39;52.01
14383;BME280;7275;50.328;8.720;2023-02-19T00:58:47;99998.56;;;15.41;51.71
14383;BME280;7275;50.328;8.720;2023-02-19T01:01:15;100003.81;;;15.42;51.97
14383;BME280;7275;50.328;8.720;2023-02-19T01:03:45;99990.66;;;15.39;51.81
14383;BME280;7275;50.328;8.720;2023-02-19T01:06:15;99987.84;;;15.42;51.88
14383;BME280;7275;50.328;8.720;2023-02-19T01:08:43;99993.97;;;15.44;51.80
14383;BME280;7275;50.328;8.720;2023-02-19T01:11:12;99989.50;;;15.45;51.75
14383;BME280;7275;50.328;8.720;2023-02-19T01:13:40;99985.94;;;15.46;52.02
14383;BME280;7275;50.328;8.720;2023-02-19T01:16:11;99980.59;;;15.46;51.75
14383;BME280;7275;50.328;8.720;2023-02-19T01:18:39;99984.97;;;15.47;51.73
14383;BME280;7275;50.328;8.720;2023-02-19T01:21:12;99978.84;;;15.45;52.00
14383;BME280;7275;50.328;8.720;2023-02-19T01:23:40;99976.19;;;15.45;51.91
14383;BME280;7275;50.328;8.720;2023-02-19T01:26:12;99969.13;;;15.44;51.91
14383;BME280;7275;50.328;8.720;2023-02-19T01:28:40;99976.28;;;15.43;52.00
14383;BME280;7275;50.328;8.720;2023-02-19T01:31:11;99971.94;;;15.41;52.10
14383;BME280;7275;50.328;8.720;2023-02-19T01:33:43;99975.63;;;15.38;52.05
14383;BME280;7275;50.328;8.720;2023-02-19T01:36:13;99975.53;;;15.40;51.94
14383;BME280;7275;50.328;8.720;2023-02-19T01:38:41;99976.47;;;15.39;52.06
14383;BME280;7275;50.328;8.720;2023-02-19T01:41:10;99968.59;;;15.37;51.94
14383;BME280;7275;50.328;8.720;2023-02-19T01:43:55;99976.63;;;15.36;52.14
14383;BME280;7275;50.328;8.720;2023-02-19T01:46:24;99966.06;;;15.34;52.13
14383;BME280;7275;50.328;8.720;2023-02-19T01:48:53;99959.09;;;15.32;52.15
14383;BME280;7275;50.328;8.720;2023-02-19T01:51:23;99964.50;;;15.30;52.04
14383;BME280;7275;50.328;8.720;2023-02-19T01:53:53;99961.84;;;15.30;52.15
14383;BME280;7275;50.328;8.720;2023-02-19T01:56:22;99963.50;;;15.33;52.25
14383;BME280;7275;50.328;8.720;2023-02-19T01:58:51;99959.09;;;15.32;52.38
14383;BME280;7275;50.328;8.720;2023-02-19T02:01:19;99959.97;;;15.32;52.33
14383;BME280;7275;50.328;8.720;2023-02-19T02:03:47;99957.28;;;15.32;52.19
14383;BME280;7275;50.328;8.720;2023-02-19T02:06:19;99955.50;;;15.33;52.21
14383;BME280;7275;50.328;8.720;2023-02-19T02:08:52;99944.91;;;15.31;52.18
14383;BME280;7275;50.328;8.720;2023-02-19T02:11:39;99947.84;;;15.27;52.34
14383;BME280;7275;50.328;8.720;2023-02-19T02:14:08;99949.72;;;15.25;52.35
14383;BME280;7275;50.328;8.720;2023-02-19T02:16:44;99945.31;;;15.23;52.37
14383;BME280;7275;50.328;8.720;2023-02-19T02:22:11;99942.06;;;15.18;52.62
14383;BME280;7275;50.328;8.720;2023-02-19T02:25:04;99930.66;;;15.15;52.58
14383;BME280;7275;50.328;8.720;2023-02-19T02:27:43;99929.81;;;15.14;52.66
14383;BME280;7275;50.328;8.720;2023-02-19T02:30:41;99932.47;;;15.14;52.71
14383;BME280;7275;50.328;8.720;2023-02-19T02:33:18;99920.97;;;15.14;52.70
14383;BME280;7275;50.328;8.720;2023-02-19T02:35:50;99924.47;;;15.14;52.69
14383;BME280;7275;50.328;8.720;2023-02-19T02:38:21;99921.81;;;15.14;52.88
14383;BME280;7275;50.328;8.720;2023-02-19T02:40:50;99931.53;;;15.15;52.65
14383;BME280;7275;50.328;8.720;2023-02-19T02:43:18;99941.22;;;15.16;52.74
14383;BME280;7275;50.328;8.720;2023-02-19T02:45:47;99928.72;;;15.18;52.75
14383;BME280;7275;50.328;8.720;2023-02-19T02:48:20;99925.03;;;15.21;52.71
14383;BME280;7275;50.328;8.720;2023-02-19T02:50:53;99908.22;;;15.20;52.81
14383;BME280;7275;50.328;8.720;2023-02-19T02:53:26;99921.44;;;15.22;52.67
14383;BME280;7275;50.328;8.720;2023-02-19T02:56:17;99924.97;;;15.23;52.68
14383;BME280;7275;50.328;8.720;2023-02-19T02:58:46;99930.13;;;15.26;52.67
14383;BME280;7275;50.328;8.720;2023-02-19T03:01:19;99911.47;;;15.26;52.72
14383;BME280;7275;50.328;8.720;2023-02-19T03:04:09;99907.78;;;15.28;52.77
14383;BME280;7275;50.328;8.720;2023-02-19T03:06:39;99903.16;;;15.32;52.77
14383;BME280;7275;50.328;8.720;2023-02-19T03:09:10;99902.22;;;15.33;52.59
14383;BME280;7275;50.328;8.720;2023-02-19T03:11:44;99907.38;;;15.36;52.65
14383;BME280;7275;50.328;8.720;2023-02-19T03:14:34;99911.09;;;15.33;52.83
14383;BME280;7275;50.328;8.720;2023-02-19T03:17:26;99906.78;;;15.31;52.82
14383;BME280;7275;50.328;8.720;2023-02-19T03:20:14;99909.44;;;15.31;52.80
14383;BME280;7275;50.328;8.720;2023-02-19T03:22:43;99893.22;;;15.35;52.89
14383;BME280;7275;50.328;8.720;2023-02-19T03:25:16;99896.81;;;15.34;52.61
14383;BME280;7275;50.328;8.720;2023-02-19T03:28:07;99896.13;;;15.31;52.77
14383;BME280;7275;50.328;8.720;2023-02-19T03:30:39;99897.81;;;15.32;52.82
14383;BME280;7275;50.328;8.720;2023-02-19T03:33:11;99896.81;;;15.34;52.81
14383;BME280;7275;50.328;8.720;2023-02-19T03:35:42;99902.91;;;15.36;52.72
14383;BME280;7275;50.328;8.720;2023-02-19T03:38:14;99895.94;;;15.34;52.84
14383;BME280;7275;50.328;8.720;2023-02-19T03:40:51;99899.38;;;15.36;52.57
14383;BME280;7275;50.328;8.720;2023-02-19T03:43:25;99898.59;;;15.34;52.66
14383;BME280;7275;50.328;8.720;2023-02-19T03:46:00;99908.41;;;15.33;52.61
14383;BME280;7275;50.328;8.720;2023-02-19T03:48:34;99903.94;;;15.34;52.57
14383;BME280;7275;50.328;8.720;2023-02-19T03:51:19;99910.22;;;15.33;52.61
14383;BME280;7275;50.328;8.720;2023-02-19T03:53:53;99912.78;;;15.34;52.49
14383;BME280;7275;50.328;8.720;2023-02-19T03:56:26;99919.84;;;15.35;52.43
14383;BME280;7275;50.328;8.720;2023-02-19T03:58:58;99912.63;;;15.37;52.46
14383;BME280;7275;50.328;8.720;2023-02-19T04:01:31;99909.88;;;15.39;52.40
14383;BME280;7275;50.328;8.720;2023-02-19T04:04:08;99913.22;;;15.42;52.34
14383;BME280;7275;50.328;8.720;2023-02-19T04:06:41;99922.91;;;15.45;52.27
14383;BME280;7275;50.328;8.720;2023-02-19T04:09:11;99911.22;;;15.47;52.21
14383;BME280;7275;50.328;8.720;2023-02-19T04:11:41;99906.69;;;15.49;51.95
14383;BME280;7275;50.328;8.720;2023-02-19T04:14:13;99900.47;;;15.49;52.16
14383;BME280;7275;50.328;8.720;2023-02-19T04:16:47;99907.59;;;15.48;52.18
14383;BME280;7275;50.328;8.720;2023-02-19T04:19:20;99912.94;;;15.48;52.00
14383;BME280;7275;50.328;8.720;2023-02-19T04:21:49;99916.38;;;15.50;51.94
14383;BME280;7275;50.328;8.720;2023-02-19T04:24:21;99913.66;;;15.52;51.97
14383;BME280;7275;50.328;8.720;2023-02-19T04:26:51;99924.03;;;15.56;51.98
14383;BME280;7275;50.328;8.720;2023-02-19T04:29:19;99930.94;;;15.60;51.85
14383;BME280;7275;50.328;8.720;2023-02-19T04:31:47;99922.69;;;15.65;51.91
14383;BME280;7275;50.328;8.720;2023-02-19T04:34:14;99923.47;;;15.67;51.89
14383;BME280;7275;50.328;8.720;2023-02-19T04:36:43;99925.88;;;15.71;51.75
14383;BME280;7275;50.328;8.720;2023-02-19T04:39:11;99922.09;;;15.75;51.94
14383;BME280;7275;50.328;8.720;2023-02-19T04:41:39;99934.41;;;15.78;51.61
14383;BME280;7275;50.328;8.720;2023-02-19T04:44:06;99928.91;;;15.81;51.63
14383;BME280;7275;50.328;8.720;2023-02-19T04:46:34;99930.53;;;15.83;51.57
14383;BME280;7275;50.328;8.720;2023-02-19T04:49:01;99943.81;;;15.85;51.55
14383;BME280;7275;50.328;8.720;2023-02-19T04:51:29;99942.94;;;15.84;51.52
14383;BME280;7275;50.328;8.720;2023-02-19T04:53:58;99939.31;;;15.85;51.66
14383;BME280;7275;50.328;8.720;2023-02-19T04:56:26;99949.91;;;15.87;51.46
14383;BME280;7275;50.328;8.720;2023-02-19T04:58:53;99946.28;;;15.88;51.58
14383;BME280;7275;50.328;8.720;2023-02-19T05:01:22;99946.28;;;15.88;51.47
14383;BME280;7275;50.328;8.720;2023-02-19T05:03:50;99952.63;;;15.85;51.41
14383;BME280;7275;50.328;8.720;2023-02-19T05:06:18;99960.63;;;15.85;51.43
14383;BME280;7275;50.328;8.720;2023-02-19T05:08:45;99955.31;;;15.85;51.38
14383;BME280;7275;50.328;8.720;2023-02-19T05:11:14;99949.97;;;15.85;51.33
14383;BME280;7275;50.328;8.720;2023-02-19T05:13:42;99949.97;;;15.85;51.30
14383;BME280;7275;50.328;8.720;2023-02-19T05:16:11;99960.56;;;15.87;51.32
14383;BME280;7275;50.328;8.720;2023-02-19T05:18:42;99962.38;;;15.86;51.26
14383;BME280;7275;50.328;8.720;2023-02-19T05:21:10;99964.00;;;15.89;51.31
14383;BME280;7275;50.328;8.720;2023-02-19T05:23:38;99974.44;;;15.93;51.23
14383;BME280;7275;50.328;8.720;2023-02-19T05:26:07;99974.25;;;15.96;51.18
14383;BME280;7275;50.328;8.720;2023-02-19T05:28:37;99965.38;;;15.96;51.24
14383;BME280;7275;50.328;8.720;2023-02-19T05:31:06;99961.94;;;15.94;51.35
14383;BME280;7275;50.328;8.720;2023-02-19T05:33:35;99975.22;;;15.95;51.25
14383;BME280;7275;50.328;8.720;2023-02-19T05:36:05;99978.66;;;15.97;51.31
14383;BME280;7275;50.328;8.720;2023-02-19T05:38:33;99986.72;;;15.96;51.09
14383;BME280;7275;50.328;8.720;2023-02-19T05:41:08;99988.34;;;15.98;51.10
14383;BME280;7275;50.328;8.720;2023-02-19T05:43:39;99979.34;;;16.01;51.26
14383;BME280;7275;50.328;8.720;2023-02-19T05:46:07;99994.22;;;16.05;51.19
14383;BME280;7275;50.328;8.720;2023-02-19T05:48:35;99988.78;;;16.07;51.12
14383;BME280;7275;50.328;8.720;2023-02-19T05:51:04;99996.78;;;16.07;50.78
14383;BME280;7275;50.328;8.720;2023-02-19T05:53:33;99996.09;;;16.03;50.97
14383;BME280;7275;50.328;8.720;2023-02-19T05:56:01;100005.22;;;15.99;50.89
14383;BME280;7275;50.328;8.720;2023-02-19T05:58:29;99997.31;;;15.97;50.98
14383;BME280;7275;50.328;8.720;2023-02-19T06:00:58;100008.81;;;15.98;50.89
14383;BME280;7275;50.328;8.720;2023-02-19T06:03:25;100006.16;;;15.98;50.78
14383;BME280;7275;50.328;8.720;2023-02-19T06:05:53;100004.25;;;16.00;50.88
14383;BME280;7275;50.328;8.720;2023-02-19T06:08:21;100021.03;;;16.02;50.77
14383;BME280;7275;50.328;8.720;2023-02-19T06:10:48;100028.22;;;16.02;50.77
14383;BME280;7275;50.328;8.720;2023-02-19T06:13:16;100012.13;;;16.03;50.85
14383;BME280;7275;50.328;8.720;2023-02-19T06:15:43;100010.47;;;16.00;50.75
14383;BME280;7275;50.328;8.720;2023-02-19T06:18:12;100018.56;;;15.99;50.87
14383;BME280;7275;50.328;8.720;2023-02-19T06:20:40;100023.25;;;15.94;50.82
14383;BME280;7275;50.328;8.720;2023-02-19T06:23:07;100024.56;;;15.87;50.87
14383;BME280;7275;50.328;8.720;2023-02-19T06:25:35;100033.72;;;15.81;50.74
14383;BME280;7275;50.328;8.720;2023-02-19T06:28:03;100039.31;;;15.77;50.99
14383;BME280;7275;50.328;8.720;2023-02-19T06:30:31;100041.34;;;15.72;51.03
14383;BME280;7275;50.328;8.720;2023-02-19T06:32:59;100048.56;;;15.70;51.03
14383;BME280;7275;50.328;8.720;2023-02-19T06:35:28;100049.59;;;15.67;50.87
14383;BME280;7275;50.328;8.720;2023-02-19T06:37:55;100055.09;;;15.64;51.00
14383;BME280;7275;50.328;8.720;2023-02-19T06:40:23;100054.22;;;15.64;51.04
14383;BME280;7275;50.328;8.720;2023-02-19T06:42:50;100060.44;;;15.64;51.10
14383;BME280;7275;50.328;8.720;2023-02-19T06:45:18;100070.91;;;15.67;51.05
14383;BME280;7275;50.328;8.720;2023-02-19T06:47:46;100087.69;;;15.69;51.03
14383;BME280;7275;50.328;8.720;2023-02-19T06:50:14;100079.56;;;15.72;51.08
14383;BME280;7275;50.328;8.720;2023-02-19T06:52:43;100101.66;;;15.74;50.87
14383;BME280;7275;50.328;8.720;2023-02-19T06:55:11;100095.22;;;15.78;50.99
14383;BME280;7275;50.328;8.720;2023-02-19T06:57:38;100102.13;;;15.82;50.75
14383;BME280;7275;50.328;8.720;2023-02-19T07:00:07;100094.91;;;15.84;50.67
14383;BME280;7275;50.328;8.720;2023-02-19T07:02:35;100101.00;;;15.86;50.72
14383;BME280;7275;50.328;8.720;2023-02-19T07:05:03;100103.59;;;15.88;50.72
14383;BME280;7275;50.328;8.720;2023-02-19T07:07:31;100098.25;;;15.88;50.74
14383;BME280;7275;50.328;8.720;2023-02-19T07:10:00;100106.25;;;15.88;50.57
14383;BME280;7275;50.328;8.720;2023-02-19T07:12:28;100100.06;;;15.87;50.76
14383;BME280;7275;50.328;8.720;2023-02-19T07:14:55;100107.03;;;15.90;50.66
14383;BME280;7275;50.328;8.720;2023-02-19T07:17:23;100106.97;;;15.91;50.41
14383;BME280;7275;50.328;8.720;2023-02-19T07:19:51;100107.75;;;15.93;50.52
14383;BME280;7275;50.328;8.720;2023-02-19T07:22:18;100122.72;;;15.96;50.46
14383;BME280;7275;50.328;8.720;2023-02-19T07:24:46;100131.50;;;15.98;50.50
14383;BME280;7275;50.328;8.720;2023-02-19T07:27:16;100125.22;;;15.99;50.43
14383;BME280;7275;50.328;8.720;2023-02-19T07:29:43;100133.13;;;16.00;50.41
14383;BME280;7275;50.328;8.720;2023-02-19T07:32:11;100134.78;;;16.03;50.50
14383;BME280;7275;50.328;8.720;2023-02-19T07:34:38;100139.00;;;16.07;50.18
14383;BME280;7275;50.328;8.720;2023-02-19T07:37:06;100138.88;;;16.10;50.34
14383;BME280;7275;50.328;8.720;2023-02-19T07:39:34;100143.16;;;16.13;50.40
14383;BME280;7275;50.328;8.720;2023-02-19T07:42:01;100149.22;;;16.16;50.42
14383;BME280;7275;50.328;8.720;2023-02-19T07:44:30;100144.66;;;16.18;50.30
14383;BME280;7275;50.328;8.720;2023-02-19T07:46:58;100154.31;;;16.21;50.35
14383;BME280;7275;50.328;8.720;2023-02-19T07:49:26;100160.47;;;16.21;50.16
14383;BME280;7275;50.328;8.720;2023-02-19T07:51:54;100164.19;;;16.19;50.26
14383;BME280;7275;50.328;8.720;2023-02-19T07:54:21;100165.22;;;16.16;50.35
14383;BME280;7275;50.328;8.720;2023-02-19T07:56:49;100161.69;;;16.16;50.50
14383;BME280;7275;50.328;8.720;2023-02-19T07:59:16;100173.13;;;16.18;50.56
14383;BME280;7275;50.328;8.720;2023-02-19T08:01:48;100174.88;;;16.19;50.50
14383;BME280;7275;50.328;8.720;2023-02-19T08:04:33;100173.13;;;16.18;50.45
14383;BME280;7275;50.328;8.720;2023-02-19T08:07:01;100171.38;;;16.17;50.55
14383;BME280;7275;50.328;8.720;2023-02-19T08:09:30;100182.00;;;16.18;50.56
14383;BME280;7275;50.328;8.720;2023-02-19T08:11:58;100187.41;;;16.17;50.57
14383;BME280;7275;50.328;8.720;2023-02-19T08:14:43;100204.22;;;16.19;50.62
14383;BME280;7275;50.328;8.720;2023-02-19T08:17:12;100203.16;;;16.21;50.72
14383;BME280;7275;50.328;8.720;2023-02-19T08:19:40;100209.28;;;16.23;50.42
14383;BME280;7275;50.328;8.720;2023-02-19T08:22:07;100211.13;;;16.23;50.40
14383;BME280;7275;50.328;8.720;2023-02-19T08:24:35;100218.25;;;16.22;50.33
14383;BME280;7275;50.328;8.720;2023-02-19T08:27:08;100217.38;;;16.22;50.35
14383;BME280;7275;50.328;8.720;2023-02-19T08:29:35;100232.44;;;16.23;50.31
14383;BME280;7275;50.328;8.720;2023-02-19T08:32:03;100228.75;;;16.25;50.34
14383;BME280;7275;50.328;8.720;2023-02-19T08:34:34;100239.41;;;16.25;50.35
14383;BME280;7275;50.328;8.720;2023-02-19T08:37:01;100229.53;;;16.27;50.42
14383;BME280;7275;50.328;8.720;2023-02-19T08:39:29;100234.81;;;16.29;50.26
14383;BME280;7275;50.328;8.720;2023-02-19T08:41:56;100240.06;;;16.30;50.30
14383;BME280;7275;50.328;8.720;2023-02-19T08:44:24;100247.09;;;16.31;50.25
14383;BME280;7275;50.328;8.720;2023-02-19T08:46:51;100239.97;;;16.32;50.42
14383;BME280;7275;50.328;8.720;2023-02-19T08:49:19;100245.84;;;16.38;50.42
14383;BME280;7275;50.328;8.720;2023-02-19T08:51:48;100240.28;;;16.43;50.31
14383;BME280;7275;50.328;8.720;2023-02-19T08:54:15;100249.94;;;16.45;50.31
14383;BME280;7275;50.328;8.720;2023-02-19T08:56:43;100247.25;;;16.45;50.21
14383;BME280;7275;50.328;8.720;2023-02-19T08:59:11;100257.06;;;16.45;50.12
14383;BME280;7275;50.328;8.720;2023-02-19T09:01:38;100249.84;;;16.47;50.34
14383;BME280;7275;50.328;8.720;2023-02-19T09:04:07;100261.09;;;16.53;50.49
14383;BME280;7275;50.328;8.720;2023-02-19T09:06:36;100266.88;;;16.61;50.51
14383;BME280;7275;50.328;8.720;2023-02-19T09:09:07;100257.34;;;16.73;50.45
14383;BME280;7275;50.328;8.720;2023-02-19T09:11:37;100259.19;;;16.88;50.46
14383;BME280;7275;50.328;8.720;2023-02-19T09:14:05;100272.75;;;17.01;50.17
14383;BME280;7275;50.328;8.720;2023-02-19T09:16:33;100268.47;;;17.14;49.97
14383;BME280;7275;50.328;8.720;2023-02-19T09:19:01;100274.34;;;17.20;49.77
14383;BME280;7275;50.328;8.720;2023-02-19T09:21:29;100277.56;;;17.27;49.89
14383;BME280;7275;50.328;8.720;2023-02-19T09:23:57;100269.00;;;17.36;49.61
14383;BME280;7275;50.328;8.720;2023-02-19T09:26:26;100255.91;;;17.47;49.30
14383;BME280;7275;50.328;8.720;2023-02-19T09:28:53;100261.44;;;17.60;49.68
14383;BME280;7275;50.328;8.720;2023-02-19T09:31:21;100265.06;;;17.74;49.24
14383;BME280;7275;50.328;8.720;2023-02-19T09:33:49;100264.03;;;17.77;48.81
14383;BME280;7275;50.328;8.720;2023-02-19T09:36:17;100277.66;;;17.72;48.69
14383;BME280;7275;50.328;8.720;2023-02-19T09:38:45;100270.25;;;17.62;48.66
14383;BME280;7275;50.328;8.720;2023-02-19T09:41:18;100272.50;;;17.53;48.30
14383;BME280;7275;50.328;8.720;2023-02-19T09:43:50;100277.44;;;17.44;48.42
14383;BME280;7275;50.328;8.720;2023-02-19T09:46:23;100281.34;;;17.38;48.57
14383;BME280;7275;50.328;8.720;2023-02-19T09:48:56;100279.94;;;17.31;48.60
14383;BME280;7275;50.328;8.720;2023-02-19T09:51:26;100289.16;;;17.26;48.68
14383;BME280;7275;50.328;8.720;2023-02-19T09:53:55;100289.41;;;17.21;48.83
14383;BME280;7275;50.328;8.720;2023-02-19T09:56:25;100287.88;;;17.17;48.69
14383;BME280;7275;50.328;8.720;2023-02-19T09:58:56;100287.09;;;17.15;48.89
14383;BME280;7275;50.328;8.720;2023-02-19T10:01:29;100285.28;;;17.16;48.93
14383;BME280;7275;50.328;8.720;2023-02-19T10:03:57;100297.53;;;17.20;48.83
14383;BME280;7275;50.328;8.720;2023-02-19T10:06:26;100299.78;;;17.27;48.92
14383;BME280;7275;50.328;8.720;2023-02-19T10:08:59;100316.88;;;17.40;49.25
14383;BME280;7275;50.328;8.720;2023-02-19T10:11:35;100320.63;;;17.53;48.85
14383;BME280;7275;50.328;8.720;2023-02-19T10:14:06;100315.69;;;17.62;48.75
14383;BME280;7275;50.328;8.720;2023-02-19T10:16:38;100318.91;;;17.68;48.54
14383;BME280;7275;50.328;8.720;2023-02-19T10:19:09;100310.44;;;17.76;48.78
14383;BME280;7275;50.328;8.720;2023-02-19T10:21:37;100305.69;;;17.81;48.21
14383;BME280;7275;50.328;8.720;2023-02-19T10:24:06;100315.28;;;17.85;48.00
14383;BME280;7275;50.328;8.720;2023-02-19T10:26:34;100310.94;;;18.27;48.65
14383;BME280;7275;50.328;8.720;2023-02-19T10:29:04;100318.56;;;18.65;48.09
14383;BME280;7275;50.328;8.720;2023-02-19T10:31:32;100316.41;;;18.85;47.51
14383;BME280;7275;50.328;8.720;2023-02-19T10:34:00;100325.47;;;18.97;47.09
14383;BME280;7275;50.328;8.720;2023-02-19T10:36:30;100326.06;;;19.16;47.19
14383;BME280;7275;50.328;8.720;2023-02-19T10:39:00;100342.06;;;19.60;47.01
14383;BME280;7275;50.328;8.720;2023-02-19T10:41:29;100336.31;;;19.92;46.46
14383;BME280;7275;50.328;8.720;2023-02-19T10:44:04;100359.84;;;20.16;46.21
14383;BME280;7275;50.328;8.720;2023-02-19T10:46:36;100341.72;;;20.46;45.99
14383;BME280;7275;50.328;8.720;2023-02-19T10:49:18;100355.09;;;20.73;45.52
14383;BME280;7275;50.328;8.720;2023-02-19T10:51:51;100359.78;;;21.08;45.13
14383;BME280;7275;50.328;8.720;2023-02-19T10:54:24;100357.09;;;21.21;44.31
14383;BME280;7275;50.328;8.720;2023-02-19T10:56:53;100362.97;;;21.64;44.82
14383;BME280;7275;50.328;8.720;2023-02-19T10:59:23;100358.94;;;21.94;43.53
14383;BME280;7275;50.328;8.720;2023-02-19T11:01:56;100360.72;;;22.77;44.03
14383;BME280;7275;50.328;8.720;2023-02-19T11:04:25;100355.53;;;23.87;42.98
14383;BME280;7275;50.328;8.720;2023-02-19T11:06:54;100356.53;;;24.39;41.36
14383;BME280;7275;50.328;8.720;2023-02-19T11:09:25;100351.25;;;24.70;41.12
14383;BME280;7275;50.328;8.720;2023-02-19T11:11:55;100354.25;;;24.87;40.54
14383;BME280;7275;50.328;8.720;2023-02-19T11:14:24;100353.91;;;25.01;40.08
14383;BME280;7275;50.328;8.720;2023-02-19T11:16:55;100361.63;;;25.06;39.82
14383;BME280;7275;50.328;8.720;2023-02-19T11:19:27;100360.19;;;25.22;39.24
14383;BME280;7275;50.328;8.720;2023-02-19T11:21:55;100354.84;;;25.62;38.43
14383;BME280;7275;50.328;8.720;2023-02-19T11:24:28;100350.94;;;25.46;37.52
14383;BME280;7275;50.328;8.720;2023-02-19T11:27:00;100357.47;;;25.43;37.71
14383;BME280;7275;50.328;8.720;2023-02-19T11:29:29;100354.19;;;25.19;37.21
14383;BME280;7275;50.328;8.720;2023-02-19T11:32:22;100361.59;;;24.76;37.52
14383;BME280;7275;50.328;8.720;2023-02-19T11:34:51;100363.75;;;24.50;37.60
14383;BME280;7275;50.328;8.720;2023-02-19T11:37:20;100373.19;;;24.24;37.67
14383;BME280;7275;50.328;8.720;2023-02-19T11:39:49;100377.53;;;24.15;38.04
14383;BME280;7275;50.328;8.720;2023-02-19T11:42:29;100374.56;;;23.85;38.15
14383;BME280;7275;50.328;8.720;2023-02-19T11:45:28;100369.47;;;23.49;38.72
14383;BME280;7275;50.328;8.720;2023-02-19T11:48:16;100372.28;;;23.58;39.28
14383;BME280;7275;50.328;8.720;2023-02-19T11:51:02;100370.03;;;23.86;39.22
14383;BME280;7275;50.328;8.720;2023-02-19T11:53:31;100368.19;;;24.08;39.16
14383;BME280;7275;50.328;8.720;2023-02-19T11:56:12;100363.50;;;23.99;38.45
14383;BME280;7275;50.328;8.720;2023-02-19T11:59:00;100360.09;;;23.64;38.60
14383;BME280;7275;50.328;8.720;2023-02-19T12:01:41;100373.50;;;23.43;38.76
14383;BME280;7275;50.328;8.720;2023-02-19T12:04:33;100364.41;;;23.66;38.98
14383;BME280;7275;50.328;8.720;2023-02-19T12:07:15;100364.41;;;24.42;38.65
14383;BME280;7275;50.328;8.720;2023-02-19T12:09:59;100385.41;;;25.23;37.96
14383;BME280;7275;50.328;8.720;2023-02-19T12:12:43;100368.75;;;26.28;37.42
14383;BME280;7275;50.328;8.720;2023-02-19T12:15:38;100361.94;;;27.56;36.41
14383;BME280;7275;50.328;8.720;2023-02-19T12:18:31;100355.19;;;27.87;35.98
14383;BME280;7275;50.328;8.720;2023-02-19T12:21:19;100364.22;;;27.88;35.01
14383;BME280;7275;50.328;8.720;2023-02-19T12:24:17;100359.44;;;27.45;34.61
14383;BME280;7275;50.328;8.720;2023-02-19T12:27:01;100373.81;;;26.80;34.40
14383;BME280;7275;50.328;8.720;2023-02-19T12:29:48;100379.91;;;26.44;35.05
14383;BME280;7275;50.328;8.720;2023-02-19T12:32:47;100374.66;;;26.90;35.49
14383;BME280;7275;50.328;8.720;2023-02-19T12:35:27;100342.78;;;27.57;34.68
14383;BME280;7275;50.328;8.720;2023-02-19T12:38:07;100341.81;;;28.30;34.33
14383;BME280;7275;50.328;8.720;2023-02-19T12:40:47;100352.75;;;28.21;33.43
14383;BME280;7275;50.328;8.720;2023-02-19T12:43:17;100353.16;;;27.72;33.42
14383;BME280;7275;50.328;8.720;2023-02-19T12:45:48;100338.53;;;27.45;32.72
14383;BME280;7275;50.328;8.720;2023-02-19T12:48:24;100351.56;;;27.32;32.96
14383;BME280;7275;50.328;8.720;2023-02-19T12:50:56;100352.38;;;27.06;33.61
14383;BME280;7275;50.328;8.720;2023-02-19T12:53:36;100352.38;;;26.77;33.49
14383;BME280;7275;50.328;8.720;2023-02-19T12:56:10;100355.22;;;26.47;34.00
14383;BME280;7275;50.328;8.720;2023-02-19T12:58:43;100357.88;;;26.18;33.71
14383;BME280;7275;50.328;8.720;2023-02-19T13:01:15;100348.84;;;25.98;34.04
14383;BME280;7275;50.328;8.720;2023-02-19T13:03:49;100358.78;;;26.38;34.47
14383;BME280;7275;50.328;8.720;2023-02-19T13:06:26;100358.03;;;27.12;34.26
14383;BME280;7275;50.328;8.720;2023-02-19T13:09:01;100364.13;;;27.80;33.81
14383;BME280;7275;50.328;8.720;2023-02-19T13:11:36;100359.22;;;28.20;33.19
14383;BME280;7275;50.328;8.720;2023-02-19T13:14:09;100352.72;;;28.66;32.94
14383;BME280;7275;50.328;8.720;2023-02-19T13:16:45;100362.34;;;28.95;31.98
14383;BME280;7275;50.328;8.720;2023-02-19T13:19:14;100368.75;;;29.30;31.53
14383;BME280;7275;50.328;8.720;2023-02-19T13:21:45;100369.75;;;29.80;31.20
14383;BME280;7275;50.328;8.720;2023-02-19T13:24:39;100367.72;;;29.90;30.62
14383;BME280;7275;50.328;8.720;2023-02-19T13:27:25;100381.88;;;29.60;30.70
14383;BME280;7275;50.328;8.720;2023-02-19T13:30:09;100380.81;;;29.78;30.33
14383;BME280;7275;50.328;8.720;2023-02-19T13:32:58;100366.31;;;29.78;30.32